sensor_id;sensor_type;location;lat;lon;timestamp;P1;durP1;ratioP1;P2;durP2;ratioP2
83728;SDS011;73707;56.480;-2.840;2024-02-04T00:01:18;3.00;;;1.70;;
83728;SDS011;73707;56.480;-2.840;2024-02-04T00:03:43;5.17;;;1.53;;
83728;SDS011;73707;56.480;-2.840;2024-02-04T00:06:09;4.93;;;1.77;;
83728;SDS011;73707;56.480;-2.840;2024-02-04T00:08:35;6.47;;;1.90;;
83728;SDS011;73707;56.480;-2.840;2024-02-04T00:11:02;4.63;;;1.77;;
83728;SDS011;73707;56.480;-2.840;2024-02-04T00:13:29;8.73;;;1.73;;
83728;SDS011;73707;56.480;-2.840;2024-02-04T00:15:55;6.82;;;1.83;;
83728;SDS011;73707;56.480;-2.840;2024-02-04T00:18:23;4.07;;;1.88;;
83728;SDS011;73707;56.480;-2.840;2024-02-04T00:20:49;8.73;;;2.43;;
83728;SDS011;73707;56.480;-2.840;2024-02-04T00:23:15;6.72;;;1.70;;
83728;SDS011;73707;56.480;-2.840;2024-02-04T00:25:41;6.47;;;1.40;;
83728;SDS011;73707;56.480;-2.840;2024-02-04T00:28:06;4.40;;;1.50;;
83728;SDS011;73707;56.480;-2.840;2024-02-04T00:30:36;4.27;;;1.40;;
83728;SDS011;73707;56.480;-2.840;2024-02-04T00:33:05;7.32;;;1.65;;
83728;SDS011;73707;56.480;-2.840;2024-02-04T00:35:30;3.17;;;1.30;;
83728;SDS011;73707;56.480;-2.840;2024-02-04T00:37:56;6.13;;;1.73;;
83728;SDS011;73707;56.480;-2.840;2024-02-04T00:40:22;6.65;;;1.38;;
83728;SDS011;73707;56.480;-2.840;2024-02-04T00:42:48;2.80;;;1.10;;
83728;SDS011;73707;56.480;-2.840;2024-02-04T00:45:13;4.80;;;1.33;;
83728;SDS011;73707;56.480;-2.840;2024-02-04T00:47:39;8.70;;;1.73;;
83728;SDS011;73707;56.480;-2.840;2024-02-04T00:50:05;5.53;;;1.67;;
83728;SDS011;73707;56.480;-2.840;2024-02-04T00:52:31;5.18;;;1.23;;
83728;SDS011;73707;56.480;-2.840;2024-02-04T00:54:57;3.33;;;1.48;;
83728;SDS011;73707;56.480;-2.840;2024-02-04T00:57:22;4.13;;;1.70;;
83728;SDS011;73707;56.480;-2.840;2024-02-04T00:59:48;5.03;;;1.50;;
83728;SDS011;73707;56.480;-2.840;2024-02-04T01:02:15;7.00;;;2.00;;
83728;SDS011;73707;56.480;-2.840;2024-02-04T01:04:41;4.55;;;1.33;;
83728;SDS011;73707;56.480;-2.840;2024-02-04T01:07:07;8.43;;;1.27;;
83728;SDS011;73707;56.480;-2.840;2024-02-04T01:09:32;3.38;;;1.15;;
83728;SDS011;73707;56.480;-2.840;2024-02-04T01:11:58;4.70;;;1.70;;
83728;SDS011;73707;56.480;-2.840;2024-02-04T01:14:24;3.60;;;1.17;;
83728;SDS011;73707;56.480;-2.840;2024-02-04T01:16:49;3.88;;;1.35;;
83728;SDS011;73707;56.480;-2.840;2024-02-04T01:19:15;5.30;;;1.17;;
83728;SDS011;73707;56.480;-2.840;2024-02-04T01:21:41;2.53;;;1.00;;
83728;SDS011;73707;56.480;-2.840;2024-02-04T01:24:06;4.60;;;0.90;;
83728;SDS011;73707;56.480;-2.840;2024-02-04T01:26:32;4.30;;;1.10;;
83728;SDS011;73707;56.480;-2.840;2024-02-04T01:28:58;1.93;;;0.93;;
83728;SDS011;73707;56.480;-2.840;2024-02-04T01:31:23;2.60;;;1.23;;
83728;SDS011;73707;56.480;-2.840;2024-02-04T01:33:49;4.57;;;0.98;;
83728;SDS011;73707;56.480;-2.840;2024-02-04T01:36:15;3.43;;;1.40;;
83728;SDS011;73707;56.480;-2.840;2024-02-04T01:38:40;5.15;;;1.13;;
83728;SDS011;73707;56.480;-2.840;2024-02-04T01:41:06;3.80;;;1.23;;
83728;SDS011;73707;56.480;-2.840;2024-02-04T01:43:32;3.43;;;0.97;;
83728;SDS011;73707;56.480;-2.840;2024-02-04T01:45:57;4.88;;;1.33;;
83728;SDS011;73707;56.480;-2.840;2024-02-04T01:48:23;5.33;;;1.37;;
83728;SDS011;73707;56.480;-2.840;2024-02-04T01:50:50;3.25;;;1.17;;
83728;SDS011;73707;56.480;-2.840;2024-02-04T01:53:19;4.47;;;1.35;;
83728;SDS011;73707;56.480;-2.840;2024-02-04T01:55:46;3.58;;;1.17;;
83728;SDS011;73707;56.480;-2.840;2024-02-04T01:58:14;3.53;;;1.38;;
83728;SDS011;73707;56.480;-2.840;2024-02-04T02:00:40;6.82;;;1.73;;
83728;SDS011;73707;56.480;-2.840;2024-02-04T02:03:06;5.03;;;1.70;;
83728;SDS011;73707;56.480;-2.840;2024-02-04T02:05:33;3.40;;;1.30;;
83728;SDS011;73707;56.480;-2.840;2024-02-04T02:07:59;4.55;;;1.48;;
83728;SDS011;73707;56.480;-2.840;2024-02-04T02:10:25;6.47;;;1.27;;
83728;SDS011;73707;56.480;-2.840;2024-02-04T02:13:04;4.90;;;1.33;;
83728;SDS011;73707;56.480;-2.840;2024-02-04T02:15:39;5.25;;;1.67;;
83728;SDS011;73707;56.480;-2.840;2024-02-04T02:18:11;4.55;;;1.15;;
83728;SDS011;73707;56.480;-2.840;2024-02-04T02:23:36;4.22;;;1.42;;
83728;SDS011;73707;56.480;-2.840;2024-02-04T02:26:08;6.90;;;1.73;;
83728;SDS011;73707;56.480;-2.840;2024-02-04T02:28:34;3.58;;;1.48;;
83728;SDS011;73707;56.480;-2.840;2024-02-04T02:31:00;5.68;;;1.70;;
83728;SDS011;73707;56.480;-2.840;2024-02-04T02:33:26;4.83;;;1.50;;
83728;SDS011;73707;56.480;-2.840;2024-02-04T02:35:53;5.93;;;1.17;;
83728;SDS011;73707;56.480;-2.840;2024-02-04T02:38:46;2.83;;;1.25;;
83728;SDS011;73707;56.480;-2.840;2024-02-04T02:41:23;4.25;;;1.23;;
83728;SDS011;73707;56.480;-2.840;2024-02-04T02:43:55;4.43;;;1.20;;
83728;SDS011;73707;56.480;-2.840;2024-02-04T02:46:21;8.13;;;1.65;;
83728;SDS011;73707;56.480;-2.840;2024-02-04T02:48:49;4.85;;;1.55;;
83728;SDS011;73707;56.480;-2.840;2024-02-04T02:51:15;7.55;;;1.80;;
83728;SDS011;73707;56.480;-2.840;2024-02-04T02:53:41;3.35;;;1.20;;
83728;SDS011;73707;56.480;-2.840;2024-02-04T02:56:07;6.03;;;1.58;;
83728;SDS011;73707;56.480;-2.840;2024-02-04T02:58:33;5.13;;;1.40;;
83728;SDS011;73707;56.480;-2.840;2024-02-04T03:00:58;6.20;;;2.35;;
83728;SDS011;73707;56.480;-2.840;2024-02-04T03:03:24;5.22;;;1.52;;
83728;SDS011;73707;56.480;-2.840;2024-02-04T03:05:49;3.90;;;1.10;;
83728;SDS011;73707;56.480;-2.840;2024-02-04T03:08:15;7.80;;;1.67;;
83728;SDS011;73707;56.480;-2.840;2024-02-04T03:10:42;4.15;;;1.17;;
83728;SDS011;73707;56.480;-2.840;2024-02-04T03:13:07;7.10;;;1.30;;
83728;SDS011;73707;56.480;-2.840;2024-02-04T03:15:33;7.43;;;1.65;;
83728;SDS011;73707;56.480;-2.840;2024-02-04T03:17:59;3.55;;;1.20;;
83728;SDS011;73707;56.480;-2.840;2024-02-04T03:20:24;4.65;;;1.30;;
83728;SDS011;73707;56.480;-2.840;2024-02-04T03:22:50;3.10;;;1.50;;
83728;SDS011;73707;56.480;-2.840;2024-02-04T03:25:16;4.43;;;1.20;;
83728;SDS011;73707;56.480;-2.840;2024-02-04T03:27:42;2.40;;;0.77;;
83728;SDS011;73707;56.480;-2.840;2024-02-04T03:30:07;2.80;;;0.75;;
83728;SDS011;73707;56.480;-2.840;2024-02-04T03:32:33;4.53;;;1.38;;
83728;SDS011;73707;56.480;-2.840;2024-02-04T03:35:02;3.97;;;1.57;;
83728;SDS011;73707;56.480;-2.840;2024-02-04T03:37:28;3.85;;;1.58;;
83728;SDS011;73707;56.480;-2.840;2024-02-04T03:39:54;2.85;;;1.00;;
83728;SDS011;73707;56.480;-2.840;2024-02-04T03:42:20;4.00;;;1.40;;
83728;SDS011;73707;56.480;-2.840;2024-02-04T03:44:47;5.45;;;1.60;;
83728;SDS011;73707;56.480;-2.840;2024-02-04T03:47:13;6.15;;;1.40;;
83728;SDS011;73707;56.480;-2.840;2024-02-04T03:49:39;4.07;;;0.90;;
83728;SDS011;73707;56.480;-2.840;2024-02-04T03:52:05;2.67;;;0.93;;
83728;SDS011;73707;56.480;-2.840;2024-02-04T03:54:31;4.53;;;1.20;;
83728;SDS011;73707;56.480;-2.840;2024-02-04T03:56:56;3.53;;;1.00;;
83728;SDS011;73707;56.480;-2.840;2024-02-04T03:59:22;1.47;;;0.93;;
83728;SDS011;73707;56.480;-2.840;2024-02-04T04:01:48;4.82;;;1.35;;
83728;SDS011;73707;56.480;-2.840;2024-02-04T04:04:15;5.13;;;1.13;;
83728;SDS011;73707;56.480;-2.840;2024-02-04T04:06:42;3.45;;;0.90;;
83728;SDS011;73707;56.480;-2.840;2024-02-04T04:09:08;3.50;;;1.08;;
83728;SDS011;73707;56.480;-2.840;2024-02-04T04:11:33;2.97;;;1.20;;
83728;SDS011;73707;56.480;-2.840;2024-02-04T04:13:59;3.83;;;1.45;;
83728;SDS011;73707;56.480;-2.840;2024-02-04T04:16:25;3.10;;;1.10;;
83728;SDS011;73707;56.480;-2.840;2024-02-04T04:18:50;1.63;;;0.70;;
83728;SDS011;73707;56.480;-2.840;2024-02-04T04:21:16;2.95;;;0.80;;
83728;SDS011;73707;56.480;-2.840;2024-02-04T04:23:42;1.83;;;0.73;;
83728;SDS011;73707;56.480;-2.840;2024-02-04T04:26:08;2.90;;;0.90;;
83728;SDS011;73707;56.480;-2.840;2024-02-04T04:28:34;2.65;;;1.08;;
83728;SDS011;73707;56.480;-2.840;2024-02-04T04:30:59;3.97;;;1.08;;
83728;SDS011;73707;56.480;-2.840;2024-02-04T04:33:25;2.50;;;1.20;;
83728;SDS011;73707;56.480;-2.840;2024-02-04T04:35:51;2.50;;;1.00;;
83728;SDS011;73707;56.480;-2.840;2024-02-04T04:38:16;2.90;;;0.80;;
83728;SDS011;73707;56.480;-2.840;2024-02-04T04:40:42;2.90;;;0.93;;
83728;SDS011;73707;56.480;-2.840;2024-02-04T04:43:08;2.00;;;0.80;;
83728;SDS011;73707;56.480;-2.840;2024-02-04T04:45:34;7.50;;;0.90;;
83728;SDS011;73707;56.480;-2.840;2024-02-04T04:48:00;3.95;;;1.30;;
83728;SDS011;73707;56.480;-2.840;2024-02-04T04:50:25;3.20;;;0.70;;
83728;SDS011;73707;56.480;-2.840;2024-02-04T04:52:52;5.40;;;1.17;;
83728;SDS011;73707;56.480;-2.840;2024-02-04T04:55:18;3.22;;;1.40;;
83728;SDS011;73707;56.480;-2.840;2024-02-04T04:57:44;5.85;;;1.98;;
83728;SDS011;73707;56.480;-2.840;2024-02-04T05:00:10;6.15;;;1.20;;
83728;SDS011;73707;56.480;-2.840;2024-02-04T05:02:37;6.30;;;1.30;;
83728;SDS011;73707;56.480;-2.840;2024-02-04T05:05:05;5.28;;;1.50;;
83728;SDS011;73707;56.480;-2.840;2024-02-04T05:07:31;7.68;;;1.55;;
83728;SDS011;73707;56.480;-2.840;2024-02-04T05:09:57;5.17;;;1.27;;
83728;SDS011;73707;56.480;-2.840;2024-02-04T05:12:22;2.10;;;1.08;;
83728;SDS011;73707;56.480;-2.840;2024-02-04T05:14:48;4.20;;;1.42;;
83728;SDS011;73707;56.480;-2.840;2024-02-04T05:17:14;8.00;;;1.67;;
83728;SDS011;73707;56.480;-2.840;2024-02-04T05:19:43;4.43;;;1.67;;
83728;SDS011;73707;56.480;-2.840;2024-02-04T05:22:08;4.57;;;1.83;;
83728;SDS011;73707;56.480;-2.840;2024-02-04T05:24:34;5.55;;;1.65;;
83728;SDS011;73707;56.480;-2.840;2024-02-04T05:27:00;7.28;;;1.38;;
83728;SDS011;73707;56.480;-2.840;2024-02-04T05:29:26;4.17;;;1.30;;
83728;SDS011;73707;56.480;-2.840;2024-02-04T05:31:51;4.55;;;1.42;;
83728;SDS011;73707;56.480;-2.840;2024-02-04T05:34:17;7.20;;;1.90;;
83728;SDS011;73707;56.480;-2.840;2024-02-04T05:36:43;7.97;;;1.60;;
83728;SDS011;73707;56.480;-2.840;2024-02-04T05:39:11;7.20;;;1.75;;
83728;SDS011;73707;56.480;-2.840;2024-02-04T05:41:38;5.00;;;1.65;;
83728;SDS011;73707;56.480;-2.840;2024-02-04T05:44:04;6.10;;;1.30;;
83728;SDS011;73707;56.480;-2.840;2024-02-04T05:46:31;3.42;;;1.42;;
83728;SDS011;73707;56.480;-2.840;2024-02-04T05:48:57;4.72;;;1.40;;
83728;SDS011;73707;56.480;-2.840;2024-02-04T05:51:23;4.55;;;1.40;;
83728;SDS011;73707;56.480;-2.840;2024-02-04T05:53:49;7.67;;;1.83;;
83728;SDS011;73707;56.480;-2.840;2024-02-04T05:56:14;6.70;;;2.15;;
83728;SDS011;73707;56.480;-2.840;2024-02-04T05:58:40;7.78;;;1.98;;
83728;SDS011;73707;56.480;-2.840;2024-02-04T06:01:06;6.00;;;1.43;;
83728;SDS011;73707;56.480;-2.840;2024-02-04T06:03:32;6.90;;;1.52;;
83728;SDS011;73707;56.480;-2.840;2024-02-04T06:05:58;6.87;;;1.80;;
83728;SDS011;73707;56.480;-2.840;2024-02-04T06:08:24;3.67;;;1.83;;
83728;SDS011;73707;56.480;-2.840;2024-02-04T06:10:49;8.37;;;2.00;;
83728;SDS011;73707;56.480;-2.840;2024-02-04T06:13:15;3.13;;;1.20;;
83728;SDS011;73707;56.480;-2.840;2024-02-04T06:15:41;9.98;;;1.88;;
83728;SDS011;73707;56.480;-2.840;2024-02-04T06:18:07;4.40;;;1.73;;
83728;SDS011;73707;56.480;-2.840;2024-02-04T06:20:32;5.93;;;2.03;;
83728;SDS011;73707;56.480;-2.840;2024-02-04T06:22:58;5.55;;;1.75;;
83728;SDS011;73707;56.480;-2.840;2024-02-04T06:25:24;3.77;;;1.07;;
83728;SDS011;73707;56.480;-2.840;2024-02-04T06:27:49;2.65;;;1.17;;
83728;SDS011;73707;56.480;-2.840;2024-02-04T06:30:15;3.23;;;1.03;;
83728;SDS011;73707;56.480;-2.840;2024-02-04T06:32:41;4.57;;;1.25;;
83728;SDS011;73707;56.480;-2.840;2024-02-04T06:35:07;2.90;;;0.88;;
83728;SDS011;73707;56.480;-2.840;2024-02-04T06:37:33;1.88;;;0.60;;
83728;SDS011;73707;56.480;-2.840;2024-02-04T06:39:58;2.00;;;0.80;;
83728;SDS011;73707;56.480;-2.840;2024-02-04T06:42:24;3.28;;;0.90;;
83728;SDS011;73707;56.480;-2.840;2024-02-04T06:44:50;3.20;;;1.07;;
83728;SDS011;73707;56.480;-2.840;2024-02-04T06:47:15;3.50;;;0.90;;
83728;SDS011;73707;56.480;-2.840;2024-02-04T06:49:44;3.10;;;0.73;;
83728;SDS011;73707;56.480;-2.840;2024-02-04T06:52:12;1.80;;;0.70;;
83728;SDS011;73707;56.480;-2.840;2024-02-04T06:54:38;3.25;;;0.60;;
83728;SDS011;73707;56.480;-2.840;2024-02-04T06:57:04;2.00;;;0.70;;
83728;SDS011;73707;56.480;-2.840;2024-02-04T06:59:29;0.80;;;0.40;;
83728;SDS011;73707;56.480;-2.840;2024-02-04T07:01:58;3.22;;;1.00;;
83728;SDS011;73707;56.480;-2.840;2024-02-04T07:04:24;6.82;;;1.50;;
83728;SDS011;73707;56.480;-2.840;2024-02-04T07:06:50;3.13;;;0.93;;
83728;SDS011;73707;56.480;-2.840;2024-02-04T07:09:18;4.18;;;0.80;;
83728;SDS011;73707;56.480;-2.840;2024-02-04T07:11:44;3.65;;;1.15;;
83728;SDS011;73707;56.480;-2.840;2024-02-04T07:14:09;5.80;;;1.50;;
83728;SDS011;73707;56.480;-2.840;2024-02-04T07:16:35;9.52;;;1.30;;
83728;SDS011;73707;56.480;-2.840;2024-02-04T07:19:01;4.55;;;1.15;;
83728;SDS011;73707;56.480;-2.840;2024-02-04T07:21:27;8.13;;;1.60;;
83728;SDS011;73707;56.480;-2.840;2024-02-04T07:23:53;4.17;;;1.00;;
83728;SDS011;73707;56.480;-2.840;2024-02-04T07:26:19;4.97;;;1.00;;
83728;SDS011;73707;56.480;-2.840;2024-02-04T07:28:44;3.37;;;0.97;;
83728;SDS011;73707;56.480;-2.840;2024-02-04T07:31:10;4.57;;;1.50;;
83728;SDS011;73707;56.480;-2.840;2024-02-04T07:33:36;3.10;;;0.97;;
83728;SDS011;73707;56.480;-2.840;2024-02-04T07:36:02;6.38;;;1.15;;
83728;SDS011;73707;56.480;-2.840;2024-02-04T07:38:27;5.07;;;0.88;;
83728;SDS011;73707;56.480;-2.840;2024-02-04T07:40:54;3.38;;;1.15;;
83728;SDS011;73707;56.480;-2.840;2024-02-04T07:43:23;5.45;;;0.90;;
83728;SDS011;73707;56.480;-2.840;2024-02-04T07:45:49;4.83;;;1.00;;
83728;SDS011;73707;56.480;-2.840;2024-02-04T07:48:15;2.72;;;0.95;;
83728;SDS011;73707;56.480;-2.840;2024-02-04T07:50:44;7.07;;;1.17;;
83728;SDS011;73707;56.480;-2.840;2024-02-04T07:53:09;2.33;;;0.73;;
83728;SDS011;73707;56.480;-2.840;2024-02-04T07:55:35;6.10;;;0.90;;
83728;SDS011;73707;56.480;-2.840;2024-02-04T07:58:01;5.53;;;0.90;;
83728;SDS011;73707;56.480;-2.840;2024-02-04T08:00:26;2.63;;;0.50;;
83728;SDS011;73707;56.480;-2.840;2024-02-04T08:02:52;3.78;;;0.90;;
83728;SDS011;73707;56.480;-2.840;2024-02-04T08:05:19;4.10;;;0.93;;
83728;SDS011;73707;56.480;-2.840;2024-02-04T08:07:45;2.25;;;0.80;;
83728;SDS011;73707;56.480;-2.840;2024-02-04T08:10:10;6.47;;;1.60;;
83728;SDS011;73707;56.480;-2.840;2024-02-04T08:12:36;3.42;;;1.35;;
83728;SDS011;73707;56.480;-2.840;2024-02-04T08:15:02;7.17;;;2.43;;
83728;SDS011;73707;56.480;-2.840;2024-02-04T08:17:28;6.03;;;3.50;;
83728;SDS011;73707;56.480;-2.840;2024-02-04T08:19:56;6.43;;;2.72;;
83728;SDS011;73707;56.480;-2.840;2024-02-04T08:22:22;9.57;;;3.15;;
83728;SDS011;73707;56.480;-2.840;2024-02-04T08:24:48;8.13;;;3.27;;
83728;SDS011;73707;56.480;-2.840;2024-02-04T08:27:13;6.20;;;2.88;;
83728;SDS011;73707;56.480;-2.840;2024-02-04T08:29:43;9.80;;;2.67;;
83728;SDS011;73707;56.480;-2.840;2024-02-04T08:32:09;5.63;;;2.67;;
83728;SDS011;73707;56.480;-2.840;2024-02-04T08:34:34;4.13;;;2.28;;
83728;SDS011;73707;56.480;-2.840;2024-02-04T08:37:00;7.15;;;2.40;;
83728;SDS011;73707;56.480;-2.840;2024-02-04T08:39:26;4.47;;;2.17;;
83728;SDS011;73707;56.480;-2.840;2024-02-04T08:41:51;4.07;;;2.20;;
83728;SDS011;73707;56.480;-2.840;2024-02-04T08:44:17;6.20;;;2.03;;
83728;SDS011;73707;56.480;-2.840;2024-02-04T08:46:43;9.33;;;2.33;;
83728;SDS011;73707;56.480;-2.840;2024-02-04T08:49:08;8.45;;;1.83;;
83728;SDS011;73707;56.480;-2.840;2024-02-04T08:51:34;4.40;;;1.43;;
83728;SDS011;73707;56.480;-2.840;2024-02-04T08:54:00;5.03;;;1.70;;
83728;SDS011;73707;56.480;-2.840;2024-02-04T08:56:25;2.33;;;1.05;;
83728;SDS011;73707;56.480;-2.840;2024-02-04T08:58:51;5.70;;;1.73;;
83728;SDS011;73707;56.480;-2.840;2024-02-04T09:01:17;2.70;;;1.20;;
83728;SDS011;73707;56.480;-2.840;2024-02-04T09:03:44;2.88;;;0.90;;
83728;SDS011;73707;56.480;-2.840;2024-02-04T09:06:09;2.22;;;1.08;;
83728;SDS011;73707;56.480;-2.840;2024-02-04T09:08:35;3.40;;;0.93;;
83728;SDS011;73707;56.480;-2.840;2024-02-04T09:11:01;2.00;;;1.10;;
83728;SDS011;73707;56.480;-2.840;2024-02-04T09:13:26;2.53;;;0.73;;
83728;SDS011;73707;56.480;-2.840;2024-02-04T09:15:52;2.47;;;1.00;;
83728;SDS011;73707;56.480;-2.840;2024-02-04T09:18:19;7.75;;;1.63;;
83728;SDS011;73707;56.480;-2.840;2024-02-04T09:20:45;1.58;;;1.02;;
83728;SDS011;73707;56.480;-2.840;2024-02-04T09:23:11;3.47;;;1.23;;
83728;SDS011;73707;56.480;-2.840;2024-02-04T09:25:37;3.05;;;1.10;;
83728;SDS011;73707;56.480;-2.840;2024-02-04T09:28:02;3.72;;;0.95;;
83728;SDS011;73707;56.480;-2.840;2024-02-04T09:30:28;4.13;;;1.15;;
83728;SDS011;73707;56.480;-2.840;2024-02-04T09:32:54;2.27;;;0.90;;
83728;SDS011;73707;56.480;-2.840;2024-02-04T09:35:20;4.18;;;1.05;;
83728;SDS011;73707;56.480;-2.840;2024-02-04T09:37:45;1.30;;;0.70;;
83728;SDS011;73707;56.480;-2.840;2024-02-04T09:40:11;3.43;;;1.03;;
83728;SDS011;73707;56.480;-2.840;2024-02-04T09:42:37;5.97;;;1.20;;
83728;SDS011;73707;56.480;-2.840;2024-02-04T09:45:03;4.35;;;1.20;;
83728;SDS011;73707;56.480;-2.840;2024-02-04T09:47:29;1.77;;;0.73;;
83728;SDS011;73707;56.480;-2.840;2024-02-04T09:49:57;5.05;;;1.00;;
83728;SDS011;73707;56.480;-2.840;2024-02-04T09:52:25;2.53;;;0.75;;
83728;SDS011;73707;56.480;-2.840;2024-02-04T09:54:57;3.03;;;1.20;;
83728;SDS011;73707;56.480;-2.840;2024-02-04T09:57:25;2.78;;;1.30;;
83728;SDS011;73707;56.480;-2.840;2024-02-04T09:59:51;4.55;;;1.60;;
83728;SDS011;73707;56.480;-2.840;2024-02-04T10:02:17;3.20;;;1.20;;
83728;SDS011;73707;56.480;-2.840;2024-02-04T10:04:44;4.47;;;1.23;;
83728;SDS011;73707;56.480;-2.840;2024-02-04T10:07:10;2.33;;;0.73;;
83728;SDS011;73707;56.480;-2.840;2024-02-04T10:09:38;3.43;;;1.33;;
83728;SDS011;73707;56.480;-2.840;2024-02-04T10:12:04;2.25;;;0.68;;
83728;SDS011;73707;56.480;-2.840;2024-02-04T10:14:30;4.27;;;0.83;;
83728;SDS011;73707;56.480;-2.840;2024-02-04T10:16:56;2.70;;;0.80;;
83728;SDS011;73707;56.480;-2.840;2024-02-04T10:19:24;2.50;;;0.80;;
83728;SDS011;73707;56.480;-2.840;2024-02-04T10:22:00;2.20;;;0.73;;
83728;SDS011;73707;56.480;-2.840;2024-02-04T10:24:26;2.25;;;0.95;;
83728;SDS011;73707;56.480;-2.840;2024-02-04T10:26:53;1.00;;;0.52;;
83728;SDS011;73707;56.480;-2.840;2024-02-04T10:29:22;1.77;;;0.67;;
83728;SDS011;73707;56.480;-2.840;2024-02-04T10:31:52;2.63;;;0.97;;
83728;SDS011;73707;56.480;-2.840;2024-02-04T10:34:18;4.80;;;1.08;;
83728;SDS011;73707;56.480;-2.840;2024-02-04T10:36:45;2.35;;;0.63;;
83728;SDS011;73707;56.480;-2.840;2024-02-04T10:39:10;0.73;;;0.43;;
83728;SDS011;73707;56.480;-2.840;2024-02-04T10:41:36;2.85;;;0.70;;
83728;SDS011;73707;56.480;-2.840;2024-02-04T10:44:07;2.08;;;0.77;;
83728;SDS011;73707;56.480;-2.840;2024-02-04T10:46:36;2.92;;;0.65;;
83728;SDS011;73707;56.480;-2.840;2024-02-04T10:49:05;3.38;;;0.73;;
83728;SDS011;73707;56.480;-2.840;2024-02-04T10:51:38;1.38;;;0.47;;
83728;SDS011;73707;56.480;-2.840;2024-02-04T10:54:05;1.15;;;0.50;;
83728;SDS011;73707;56.480;-2.840;2024-02-04T10:56:42;1.95;;;0.50;;
83728;SDS011;73707;56.480;-2.840;2024-02-04T10:59:10;1.50;;;0.40;;
83728;SDS011;73707;56.480;-2.840;2024-02-04T11:01:39;1.05;;;0.55;;
83728;SDS011;73707;56.480;-2.840;2024-02-04T11:04:06;1.17;;;0.30;;
83728;SDS011;73707;56.480;-2.840;2024-02-04T11:06:35;0.38;;;0.30;;
83728;SDS011;73707;56.480;-2.840;2024-02-04T11:09:02;1.77;;;0.60;;
83728;SDS011;73707;56.480;-2.840;2024-02-04T11:11:30;1.10;;;0.40;;
83728;SDS011;73707;56.480;-2.840;2024-02-04T11:13:58;3.40;;;0.50;;
83728;SDS011;73707;56.480;-2.840;2024-02-04T11:23:01;1.17;;;0.30;;
83728;SDS011;73707;56.480;-2.840;2024-02-04T11:25:36;1.10;;;0.40;;
83728;SDS011;73707;56.480;-2.840;2024-02-04T11:28:11;2.25;;;0.50;;
83728;SDS011;73707;56.480;-2.840;2024-02-04T11:30:37;2.45;;;0.35;;
83728;SDS011;73707;56.480;-2.840;2024-02-04T11:33:04;0.60;;;0.25;;
83728;SDS011;73707;56.480;-2.840;2024-02-04T11:35:31;1.48;;;0.30;;
83728;SDS011;73707;56.480;-2.840;2024-02-04T11:37:58;1.40;;;0.38;;
83728;SDS011;73707;56.480;-2.840;2024-02-04T11:40:29;2.13;;;0.30;;
83728;SDS011;73707;56.480;-2.840;2024-02-04T11:43:13;0.80;;;0.20;;
83728;SDS011;73707;56.480;-2.840;2024-02-04T11:45:39;1.85;;;0.57;;
83728;SDS011;73707;56.480;-2.840;2024-02-04T11:48:07;1.55;;;0.13;;
83728;SDS011;73707;56.480;-2.840;2024-02-04T11:50:33;0.90;;;0.32;;
83728;SDS011;73707;56.480;-2.840;2024-02-04T11:53:07;1.25;;;0.20;;
83728;SDS011;73707;56.480;-2.840;2024-02-04T11:55:38;0.80;;;0.33;;
83728;SDS011;73707;56.480;-2.840;2024-02-04T11:58:05;0.55;;;0.20;;
83728;SDS011;73707;56.480;-2.840;2024-02-04T12:00:35;2.30;;;0.47;;
83728;SDS011;73707;56.480;-2.840;2024-02-04T12:03:01;0.65;;;0.25;;
83728;SDS011;73707;56.480;-2.840;2024-02-04T12:05:29;0.80;;;0.22;;
83728;SDS011;73707;56.480;-2.840;2024-02-04T12:08:01;1.65;;;0.30;;
83728;SDS011;73707;56.480;-2.840;2024-02-04T12:10:29;0.80;;;0.10;;
83728;SDS011;73707;56.480;-2.840;2024-02-04T12:12:57;0.52;;;0.20;;
83728;SDS011;73707;56.480;-2.840;2024-02-04T12:15:31;0.40;;;0.10;;
83728;SDS011;73707;56.480;-2.840;2024-02-04T12:18:08;1.08;;;0.10;;
83728;SDS011;73707;56.480;-2.840;2024-02-04T12:20:35;1.20;;;0.40;;
83728;SDS011;73707;56.480;-2.840;2024-02-04T12:23:02;0.50;;;0.20;;
83728;SDS011;73707;56.480;-2.840;2024-02-04T12:25:29;1.02;;;0.35;;
83728;SDS011;73707;56.480;-2.840;2024-02-04T12:27:57;1.27;;;0.10;;
83728;SDS011;73707;56.480;-2.840;2024-02-04T12:30:24;0.40;;;0.10;;
83728;SDS011;73707;56.480;-2.840;2024-02-04T12:32:57;0.60;;;0.20;;
83728;SDS011;73707;56.480;-2.840;2024-02-04T12:35:24;1.00;;;0.32;;
83728;SDS011;73707;56.480;-2.840;2024-02-04T12:37:53;2.88;;;0.30;;
83728;SDS011;73707;56.480;-2.840;2024-02-04T12:40:23;0.95;;;0.40;;
83728;SDS011;73707;56.480;-2.840;2024-02-04T12:42:54;0.20;;;0.20;;
83728;SDS011;73707;56.480;-2.840;2024-02-04T12:45:20;0.65;;;0.10;;
83728;SDS011;73707;56.480;-2.840;2024-02-04T12:47:48;0.73;;;0.50;;
83728;SDS011;73707;56.480;-2.840;2024-02-04T12:50:15;0.60;;;0.30;;
83728;SDS011;73707;56.480;-2.840;2024-02-04T12:52:43;0.70;;;0.25;;
83728;SDS011;73707;56.480;-2.840;2024-02-04T12:55:25;0.60;;;0.20;;
83728;SDS011;73707;56.480;-2.840;2024-02-04T13:00:32;1.50;;;0.22;;
83728;SDS011;73707;56.480;-2.840;2024-02-04T13:02:58;0.93;;;0.20;;
83728;SDS011;73707;56.480;-2.840;2024-02-04T13:05:25;1.48;;;0.25;;
83728;SDS011;73707;56.480;-2.840;2024-02-04T13:07:54;0.10;;;0.10;;
83728;SDS011;73707;56.480;-2.840;2024-02-04T13:10:24;0.80;;;0.10;;
83728;SDS011;73707;56.480;-2.840;2024-02-04T13:13:03;2.03;;;0.45;;
83728;SDS011;73707;56.480;-2.840;2024-02-04T13:15:54;0.10;;;0.05;;
83728;SDS011;73707;56.480;-2.840;2024-02-04T13:18:19;1.40;;;0.20;;
83728;SDS011;73707;56.480;-2.840;2024-02-04T13:20:45;0.70;;;0.30;;
83728;SDS011;73707;56.480;-2.840;2024-02-04T13:23:11;1.37;;;0.20;;
83728;SDS011;73707;56.480;-2.840;2024-02-04T13:25:37;0.87;;;0.10;;
83728;SDS011;73707;56.480;-2.840;2024-02-04T13:28:03;0.93;;;0.17;;
83728;SDS011;73707;56.480;-2.840;2024-02-04T13:30:29;0.70;;;0.30;;
83728;SDS011;73707;56.480;-2.840;2024-02-04T13:32:55;1.10;;;0.10;;
83728;SDS011;73707;56.480;-2.840;2024-02-04T13:35:22;0.20;;;0.05;;
83728;SDS011;73707;56.480;-2.840;2024-02-04T13:37:48;0.47;;;0.10;;
83728;SDS011;73707;56.480;-2.840;2024-02-04T13:40:18;0.38;;;0.15;;
83728;SDS011;73707;56.480;-2.840;2024-02-04T13:42:45;2.50;;;0.30;;
83728;SDS011;73707;56.480;-2.840;2024-02-04T13:45:11;1.60;;;0.20;;
83728;SDS011;73707;56.480;-2.840;2024-02-04T13:47:41;0.30;;;0.20;;
83728;SDS011;73707;56.480;-2.840;2024-02-04T13:50:07;0.50;;;0.10;;
83728;SDS011;73707;56.480;-2.840;2024-02-04T13:52:34;0.22;;;0.22;;
83728;SDS011;73707;56.480;-2.840;2024-02-04T13:55:01;0.50;;;0.20;;
83728;SDS011;73707;56.480;-2.840;2024-02-04T13:57:27;0.22;;;0.10;;
83728;SDS011;73707;56.480;-2.840;2024-02-04T13:59:52;0.10;;;0.10;;
83728;SDS011;73707;56.480;-2.840;2024-02-04T14:02:19;0.40;;;0.20;;
83728;SDS011;73707;56.480;-2.840;2024-02-04T14:04:44;0.10;;;0.00;;
83728;SDS011;73707;56.480;-2.840;2024-02-04T14:07:11;0.38;;;0.20;;
83728;SDS011;73707;56.480;-2.840;2024-02-04T14:09:37;1.40;;;0.40;;
83728;SDS011;73707;56.480;-2.840;2024-02-04T14:12:03;0.43;;;0.10;;
83728;SDS011;73707;56.480;-2.840;2024-02-04T14:14:29;0.90;;;0.10;;
83728;SDS011;73707;56.480;-2.840;2024-02-04T14:16:55;0.70;;;0.20;;
83728;SDS011;73707;56.480;-2.840;2024-02-04T14:19:21;0.53;;;0.23;;
83728;SDS011;73707;56.480;-2.840;2024-02-04T14:21:47;1.42;;;0.28;;
83728;SDS011;73707;56.480;-2.840;2024-02-04T14:24:12;0.40;;;0.20;;
83728;SDS011;73707;56.480;-2.840;2024-02-04T14:26:38;0.63;;;0.20;;
83728;SDS011;73707;56.480;-2.840;2024-02-04T14:29:06;0.52;;;0.10;;
83728;SDS011;73707;56.480;-2.840;2024-02-04T14:31:31;0.20;;;0.15;;
83728;SDS011;73707;56.480;-2.840;2024-02-04T14:33:58;0.68;;;0.22;;
83728;SDS011;73707;56.480;-2.840;2024-02-04T14:36:24;1.50;;;0.20;;
83728;SDS011;73707;56.480;-2.840;2024-02-04T14:38:49;1.83;;;0.30;;
83728;SDS011;73707;56.480;-2.840;2024-02-04T14:41:16;0.30;;;0.10;;
83728;SDS011;73707;56.480;-2.840;2024-02-04T14:43:41;0.47;;;0.25;;